Home > Products > Valid Products > TAF

000
FTUS43 KLMK 020520
TAFBWG
TAF
KBWG 020520Z 0206/0306 VRB03KT P6SM FEW250
     FM021500 20006KT P6SM FEW250
     FM030200 VRB03KT P6SM SKC=



000
FTUS43 KLMK 020520
TAFSDF
TAF
KSDF 020520Z 0206/0312 VRB03KT P6SM SCT250
     FM021500 19007KT P6SM FEW250
     FM030200 21004KT P6SM SKC=



000
FTUS43 KLMK 020520
TAFLEX
TAF
KLEX 020520Z 0206/0306 VRB03KT P6SM SCT250
     FM021500 19007KT P6SM FEW250
     FM030200 VRB03KT P6SM SKC=



000
FTUS43 KLMK 020520
TAFBWG
TAF
KBWG 020520Z 0206/0306 VRB03KT P6SM FEW250
     FM021500 20006KT P6SM FEW250
     FM030200 VRB03KT P6SM SKC=



000
FTUS43 KLMK 020520
TAFSDF
TAF
KSDF 020520Z 0206/0312 VRB03KT P6SM SCT250
     FM021500 19007KT P6SM FEW250
     FM030200 21004KT P6SM SKC=



000
FTUS43 KLMK 020520
TAFLEX
TAF
KLEX 020520Z 0206/0306 VRB03KT P6SM SCT250
     FM021500 19007KT P6SM FEW250
     FM030200 VRB03KT P6SM SKC=



000
FTUS43 KLMK 012320
TAFBWG
TAF
KBWG 012320Z 0200/0224 31005KT P6SM FEW250
     FM021500 20004KT P6SM SKC=



000
FTUS43 KLMK 012320
TAFSDF
TAF
KSDF 012320Z 0200/0306 34008KT P6SM SCT250
     FM020300 VRB03KT P6SM FEW250
     FM021500 19005KT P6SM FEW200=



000
FTUS43 KLMK 012320
TAFBWG
TAF
KBWG 012320Z 0200/0224 31005KT P6SM FEW250
     FM021500 20004KT P6SM SKC=



000
FTUS43 KLMK 012320
TAFLEX
TAF
KLEX 012320Z 0200/0224 33005KT P6SM FEW250
     FM021500 18005KT P6SM FEW250=



000
FTUS43 KLMK 012320
TAFSDF
TAF
KSDF 012320Z 0200/0306 34008KT P6SM SCT250
     FM020300 VRB03KT P6SM FEW250
     FM021500 19005KT P6SM FEW200=



000
FTUS43 KLMK 012320
TAFLEX
TAF
KLEX 012320Z 0200/0224 33005KT P6SM FEW250
     FM021500 18005KT P6SM FEW250=



000
FTUS43 KLMK 011954 AAA
TAFSDF
TAF AMD
KSDF 011954Z 0120/0224 34008G17KT P6SM FEW050 FEW250
     FM020200 VRB03KT P6SM FEW250
     FM021500 19005KT P6SM FEW200=



000
FTUS43 KLMK 011954 AAA
TAFSDF
TAF AMD
KSDF 011954Z 0120/0224 34008G17KT P6SM FEW050 FEW250
     FM020200 VRB03KT P6SM FEW250
     FM021500 19005KT P6SM FEW200=



000
FTUS43 KLMK 011720
TAFBWG
TAF
KBWG 011720Z 0118/0218 35008KT P6SM FEW050 FEW250
     FM020200 VRB03KT P6SM FEW250
     FM021500 20004KT P6SM SKC=



000
FTUS43 KLMK 011720
TAFSDF
TAF
KSDF 011720Z 0118/0224 34008KT P6SM FEW050 FEW250
     FM020200 VRB03KT P6SM FEW250
     FM021500 19005KT P6SM FEW200=



000
FTUS43 KLMK 011720
TAFSDF
TAF
KSDF 011720Z 0118/0224 34008KT P6SM FEW050 FEW250
     FM020200 VRB03KT P6SM FEW250
     FM021500 19005KT P6SM FEW200=



000
FTUS43 KLMK 011720
TAFLEX
TAF
KLEX 011720Z 0118/0218 33008KT P6SM FEW040 FEW250
     FM020100 VRB03KT P6SM FEW250
     FM021500 18005KT P6SM FEW200=



000
FTUS43 KLMK 011720
TAFBWG
TAF
KBWG 011720Z 0118/0218 35008KT P6SM FEW050 FEW250
     FM020200 VRB03KT P6SM FEW250
     FM021500 20004KT P6SM SKC=



000
FTUS43 KLMK 011720
TAFLEX
TAF
KLEX 011720Z 0118/0218 33008KT P6SM FEW040 FEW250
     FM020100 VRB03KT P6SM FEW250
     FM021500 18005KT P6SM FEW200=



000
FTUS43 KLMK 011120
TAFBWG
TAF
KBWG 011120Z 0112/0212 00000KT P6SM SKC
     FM011500 35009KT P6SM SKC
     FM020300 VRB03KT P6SM SKC=



000
FTUS43 KLMK 011120
TAFSDF
TAF
KSDF 011120Z 0112/0218 VRB04KT P6SM SKC
     FM011500 32009KT P6SM SKC
     FM020200 VRB04KT P6SM SKC=



000
FTUS43 KLMK 011120
TAFSDF
TAF
KSDF 011120Z 0112/0218 VRB04KT P6SM SKC
     FM011500 32009KT P6SM SKC
     FM020200 VRB04KT P6SM SKC=



000
FTUS43 KLMK 011120
TAFBWG
TAF
KBWG 011120Z 0112/0212 00000KT P6SM SKC
     FM011500 35009KT P6SM SKC
     FM020300 VRB03KT P6SM SKC=



000
FTUS43 KLMK 011120
TAFLEX
TAF
KLEX 011120Z 0112/0212 VRB05KT P6SM SKC
     FM011500 32007KT P6SM SKC
     FM020200 VRB03KT P6SM SKC=



000
FTUS43 KLMK 011120
TAFLEX
TAF
KLEX 011120Z 0112/0212 VRB05KT P6SM SKC
     FM011500 32007KT P6SM SKC
     FM020200 VRB03KT P6SM SKC=



000
FTUS43 KLMK 010520
TAFBWG
TAF
KBWG 010520Z 0106/0206 00000KT P6SM SKC
     FM011500 35006KT P6SM SKC=



000
FTUS43 KLMK 010520
TAFLEX
TAF
KLEX 010520Z 0106/0206 VRB05KT P6SM SKC
     FM011500 32007KT P6SM SKC
     FM020100 VRB03KT P6SM SKC=



000
FTUS43 KLMK 010520
TAFLEX
TAF
KLEX 010520Z 0106/0206 VRB05KT P6SM SKC
     FM011500 32007KT P6SM SKC
     FM020100 VRB03KT P6SM SKC=



000
FTUS43 KLMK 010520
TAFSDF
TAF
KSDF 010520Z 0106/0212 VRB04KT P6SM SKC
     FM011500 32007KT P6SM SKC
     FM020100 VRB04KT P6SM SKC=



000
FTUS43 KLMK 010520
TAFSDF
TAF
KSDF 010520Z 0106/0212 VRB04KT P6SM SKC
     FM011500 32007KT P6SM SKC
     FM020100 VRB04KT P6SM SKC=



000
FTUS43 KLMK 010520
TAFBWG
TAF
KBWG 010520Z 0106/0206 00000KT P6SM SKC
     FM011500 35006KT P6SM SKC=



000
FTUS43 KLMK 312320
TAFBWG
TAF
KBWG 312320Z 0100/0124 00000KT P6SM SKC
     FM011500 35006KT P6SM FEW250=



000
FTUS43 KLMK 312320
TAFLEX
TAF
KLEX 312320Z 0100/0124 VRB05KT P6SM SKC
     FM011500 32007KT P6SM SKC=



000
FTUS43 KLMK 312320
TAFSDF
TAF
KSDF 312320Z 0100/0206 28007KT P6SM SKC
     FM010300 VRB04KT P6SM SKC
     FM011500 32007KT P6SM SKC
     FM020100 VRB04KT P6SM SKC=



000
FTUS43 KLMK 312022 AAA
TAFSDF
TAF AMD
KSDF 312022Z 3120/0124 30011KT P6SM FEW070 SCT100
     FM010000 30007KT P6SM SKC
     FM010200 VRB03KT P6SM SKC
     FM011400 30006KT P6SM SKC=



000
FTUS43 KLMK 311731
TAFLEX
TAF
KLEX 311731Z 3118/0118 30004KT P6SM FEW070
     FM010000 VRB03KT P6SM SKC
     FM011400 32006KT P6SM SKC=



000
FTUS43 KLMK 311731
TAFSDF
TAF
KSDF 311731Z 3118/0124 30004KT P6SM SCT060
     FM010000 VRB03KT P6SM SKC
     FM011400 30006KT P6SM SKC=



000
FTUS43 KLMK 311731
TAFBWG
TAF
KBWG 311731Z 3118/0118 VRB05KT P6SM FEW070
     FM010000 00000KT P6SM SKC
     FM011400 33004KT P6SM SKC=



000
FTUS43 KLMK 311120
TAFBWG
TAF
KBWG 311120Z 3112/0112 36006KT P6SM FEW070
     FM010000 00000KT P6SM SKC=



000
FTUS43 KLMK 311120
TAFSDF
TAF
KSDF 311120Z 3112/0118 30007KT P6SM FEW070
     FM010000 VRB03KT P6SM SKC
     FM011400 30006KT P6SM SKC=



000
FTUS43 KLMK 311120
TAFLEX
TAF
KLEX 311120Z 3112/0112 30006KT P6SM FEW070
     FM010000 VRB03KT P6SM SKC=



000
FTUS43 KLMK 310520
TAFBWG
TAF
KBWG 310520Z 3106/0106 00000KT P6SM FEW250
     FM311300 01006KT P6SM FEW070
     FM010000 00000KT P6SM SKC=



000
FTUS43 KLMK 310520
TAFLEX
TAF
KLEX 310520Z 3106/0106 00000KT P6SM FEW250
     FM311300 30006KT P6SM FEW070
     FM010000 VRB03KT P6SM SKC=



000
FTUS43 KLMK 310520
TAFSDF
TAF
KSDF 310520Z 3106/0112 00000KT P6SM FEW250
     FM311300 30007KT P6SM FEW070
     FM010000 VRB03KT P6SM SKC=



000
FTUS43 KLMK 310520
TAFLEX
TAF
KLEX 310520Z 3106/0106 00000KT P6SM FEW250
     FM311300 30006KT P6SM FEW070
     FM010000 VRB03KT P6SM SKC=



000
FTUS43 KLMK 310520
TAFBWG
TAF
KBWG 310520Z 3106/0106 00000KT P6SM FEW250
     FM311300 01006KT P6SM FEW070
     FM010000 00000KT P6SM SKC=



000
FTUS43 KLMK 310520
TAFSDF
TAF
KSDF 310520Z 3106/0112 00000KT P6SM FEW250
     FM311300 30007KT P6SM FEW070
     FM010000 VRB03KT P6SM SKC=



000
FTUS43 KLMK 302320
TAFBWG
TAF
KBWG 302320Z 3100/3124 VRB03KT P6SM SKC
      TEMPO 3109/3112 5SM BR
     FM311600 01006KT P6SM FEW050=



000
FTUS43 KLMK 302320
TAFLEX
TAF
KLEX 302320Z 3100/3124 33006KT P6SM SKC
     FM310200 VRB03KT P6SM SKC
     FM311600 30006KT P6SM FEW060=



000
FTUS43 KLMK 302320
TAFSDF
TAF
KSDF 302320Z 3100/0106 32010KT P6SM FEW060 FEW250
     FM310200 VRB03KT P6SM SKC
     FM311600 30007KT P6SM FEW060=



000
FTUS43 KLMK 301720
TAFBWG
TAF
KBWG 301720Z 3018/3118 02010KT P6SM SKC
     FM310000 VRB03KT P6SM SKC=



000
FTUS43 KLMK 301720
TAFBWG
TAF
KBWG 301720Z 3018/3118 02010KT P6SM FEW030
     FM310000 VRB03KT P6SM SKC=



000
FTUS43 KLMK 301720
TAFLEX
TAF
KLEX 301720Z 3018/3118 34009KT P6SM FEW030 SCT250
     FM310000 VRB03KT P6SM SKC=



000
FTUS43 KLMK 301720
TAFLEX
TAF
KLEX 301720Z 3018/3118 34009KT P6SM SKC
     FM310000 VRB03KT P6SM SKC=



000
FTUS43 KLMK 301720
TAFSDF
TAF
KSDF 301720Z 3018/3124 01010KT P6SM SKC
     FM310000 VRB03KT P6SM SKC=



000
FTUS43 KLMK 301720
TAFLEX
TAF
KLEX 301720Z 3018/3118 34009KT P6SM FEW030 SCT250
     FM310000 VRB03KT P6SM SKC=



000
FTUS43 KLMK 301720
TAFLEX
TAF
KLEX 301720Z 3018/3118 34009KT P6SM SKC
     FM310000 VRB03KT P6SM SKC=



000
FTUS43 KLMK 301720
TAFSDF
TAF
KSDF 301720Z 3018/3124 01010KT P6SM SKC
     FM310000 VRB03KT P6SM SKC=



000
FTUS43 KLMK 301246 RRA
TAFLEX
TAF
KLEX 301246Z 3013/3112 34009KT P6SM FEW030
     FM310000 VRB03KT P6SM SKC=



000
FTUS43 KLMK 301245 RRA
TAFBWG
TAF
KBWG 301245Z 3013/3112 02010KT P6SM FEW030
     FM310000 VRB03KT P6SM SKC=



000
FTUS43 KLMK 301245 RRA
TAFSDF
TAF
KSDF 301245Z 3013/3118 01010KT P6SM SCT250
     FM310000 VRB03KT P6SM SKC=



000
FTUS43 KLMK 301221
TAFLEX
TAF
KLEX 301221Z 3018/3118 34009KT P6SM FEW030 SCT250
     FM310000 VRB03KT P6SM SKC=



000
FTUS43 KLMK 301221
TAFSDF
TAF
KSDF 301221Z 3018/3124 01010KT P6SM SKC
     FM310000 VRB03KT P6SM SKC=



000
FTUS43 KLMK 301221
TAFBWG
TAF
KBWG 301221Z 3018/3118 02010KT P6SM FEW030
     FM310000 VRB03KT P6SM SKC=



000
FTUS43 KLMK 301221
TAFBWG
TAF
KBWG 301221Z 3018/3118 02010KT P6SM FEW030
     FM310000 VRB03KT P6SM SKC=



000
FTUS43 KLMK 301221
TAFLEX
TAF
KLEX 301221Z 3018/3118 34009KT P6SM FEW030 SCT250
     FM310000 VRB03KT P6SM SKC=



000
FTUS43 KLMK 301221
TAFSDF
TAF
KSDF 301221Z 3018/3124 01010KT P6SM SKC
     FM310000 VRB03KT P6SM SKC=



000
FTUS43 KLMK 301224 CCA
TAFSDF

TAF
KSDF 301221Z 3012/3112 01010KT P6SM SKC
     FM310000 VRB03KT P6SM SKC=



    US Dept of Commerce
    National Oceanic and Atmospheric Administration
    National Weather Service
    1325 East West Highway
    Silver Spring, MD 20910
    Page Author: NWS Internet Services Team
Disclaimer
Information Quality
Credits
Glossary
Privacy Policy
Freedom of Information Act (FOIA)
About Us
Career Opportunities